sensor_id;sensor_type;location;lat;lon;timestamp;pressure;altitude;pressure_sealevel;temperature;humidity
56330;BME280;42236;48.058;10.632;2022-12-19T00:00:46;95580.81;;;-5.66;91.39
56330;BME280;42236;48.058;10.632;2022-12-19T00:03:32;95575.72;;;-5.61;91.17
56330;BME280;42236;48.058;10.632;2022-12-19T00:06:56;95558.56;;;-5.63;90.95
56330;BME280;42236;48.058;10.632;2022-12-19T00:09:42;95563.47;;;-5.67;91.57
56330;BME280;42236;48.058;10.632;2022-12-19T00:12:28;95568.44;;;-5.59;91.96
56330;BME280;42236;48.058;10.632;2022-12-19T00:15:14;95593.28;;;-5.54;91.71
56330;BME280;42236;48.058;10.632;2022-12-19T00:18:00;95578.75;;;-5.57;91.78
56330;BME280;42236;48.058;10.632;2022-12-19T00:21:00;95583.19;;;-5.58;91.88
56330;BME280;42236;48.058;10.632;2022-12-19T00:23:47;95577.72;;;-5.56;91.92
56330;BME280;42236;48.058;10.632;2022-12-19T00:26:35;95577.66;;;-5.49;92.11
56330;BME280;42236;48.058;10.632;2022-12-19T00:29:23;95569.78;;;-5.49;91.55
56330;BME280;42236;48.058;10.632;2022-12-19T00:32:10;95575.81;;;-5.49;91.32
56330;BME280;42236;48.058;10.632;2022-12-19T00:34:56;95572.19;;;-5.48;90.91
56330;BME280;42236;48.058;10.632;2022-12-19T00:37:44;95582.56;;;-5.53;91.23
56330;BME280;42236;48.058;10.632;2022-12-19T00:40:33;95590.06;;;-5.57;91.39
56330;BME280;42236;48.058;10.632;2022-12-19T00:43:54;95591.34;;;-5.66;91.16
56330;BME280;42236;48.058;10.632;2022-12-19T00:46:52;95582.44;;;-5.65;91.10
56330;BME280;42236;48.058;10.632;2022-12-19T00:49:38;95573.09;;;-5.61;91.41
56330;BME280;42236;48.058;10.632;2022-12-19T00:52:24;95584.44;;;-5.60;91.44
56330;BME280;42236;48.058;10.632;2022-12-19T00:55:12;95585.84;;;-5.58;91.20
56330;BME280;42236;48.058;10.632;2022-12-19T00:58:05;95579.97;;;-5.60;91.05
56330;BME280;42236;48.058;10.632;2022-12-19T01:00:51;95577.50;;;-5.54;91.07
56330;BME280;42236;48.058;10.632;2022-12-19T01:03:36;95603.19;;;-5.57;91.14
56330;BME280;42236;48.058;10.632;2022-12-19T01:10:11;95570.66;;;-5.55;91.85
56330;BME280;42236;48.058;10.632;2022-12-19T01:12:57;95578.69;;;-5.50;91.60
56330;BME280;42236;48.058;10.632;2022-12-19T01:15:55;95589.34;;;-5.45;91.68
56330;BME280;42236;48.058;10.632;2022-12-19T01:18:46;95603.50;;;-5.46;91.27
56330;BME280;42236;48.058;10.632;2022-12-19T01:21:38;95603.50;;;-5.46;91.42
56330;BME280;42236;48.058;10.632;2022-12-19T01:24:24;95606.31;;;-5.41;90.86
56330;BME280;42236;48.058;10.632;2022-12-19T01:27:09;95599.00;;;-5.39;91.45
56330;BME280;42236;48.058;10.632;2022-12-19T01:29:58;95606.88;;;-5.39;91.31
56330;BME280;42236;48.058;10.632;2022-12-19T01:32:44;95615.38;;;-5.37;91.56
56330;BME280;42236;48.058;10.632;2022-12-19T01:35:55;95623.91;;;-5.42;91.40
56330;BME280;42236;48.058;10.632;2022-12-19T01:38:41;95607.13;;;-5.41;91.43
56330;BME280;42236;48.058;10.632;2022-12-19T01:41:30;95604.50;;;-5.41;91.44
56330;BME280;42236;48.058;10.632;2022-12-19T01:44:32;95598.44;;;-5.41;91.01
56330;BME280;42236;48.058;10.632;2022-12-19T01:47:18;95591.09;;;-5.39;90.87
56330;BME280;42236;48.058;10.632;2022-12-19T02:00:47;95595.13;;;-5.37;90.27
56330;BME280;42236;48.058;10.632;2022-12-19T02:03:35;95602.81;;;-5.35;90.50
56330;BME280;42236;48.058;10.632;2022-12-19T02:06:24;95607.28;;;-5.36;90.03
56330;BME280;42236;48.058;10.632;2022-12-19T02:09:16;95601.41;;;-5.38;90.42
56330;BME280;42236;48.058;10.632;2022-12-19T02:12:03;95587.25;;;-5.37;90.85
56330;BME280;42236;48.058;10.632;2022-12-19T02:14:49;95603.59;;;-5.34;90.98
56330;BME280;42236;48.058;10.632;2022-12-19T02:18:07;95604.00;;;-5.31;90.80
56330;BME280;42236;48.058;10.632;2022-12-19T02:21:06;95598.28;;;-5.28;91.36
56330;BME280;42236;48.058;10.632;2022-12-19T02:36:39;95598.75;;;-5.12;91.72
56330;BME280;42236;48.058;10.632;2022-12-19T02:39:27;95583.53;;;-5.10;91.48
56330;BME280;42236;48.058;10.632;2022-12-19T02:42:24;95592.47;;;-5.11;91.71
56330;BME280;42236;48.058;10.632;2022-12-19T02:45:14;95586.03;;;-5.16;91.69
56330;BME280;42236;48.058;10.632;2022-12-19T02:48:02;95577.13;;;-5.15;91.88
56330;BME280;42236;48.058;10.632;2022-12-19T02:50:48;95571.88;;;-5.15;92.17
56330;BME280;42236;48.058;10.632;2022-12-19T02:53:35;95557.69;;;-5.13;92.10
56330;BME280;42236;48.058;10.632;2022-12-19T02:56:38;95560.53;;;-5.15;92.16
56330;BME280;42236;48.058;10.632;2022-12-19T03:05:18;95582.81;;;-5.18;92.80
56330;BME280;42236;48.058;10.632;2022-12-19T03:08:27;95562.50;;;-5.10;93.19
56330;BME280;42236;48.058;10.632;2022-12-19T03:11:16;95590.00;;;-5.06;92.84
56330;BME280;42236;48.058;10.632;2022-12-19T03:14:06;95618.28;;;-5.02;93.06
56330;BME280;42236;48.058;10.632;2022-12-19T03:16:52;95612.78;;;-5.00;93.24
56330;BME280;42236;48.058;10.632;2022-12-19T03:19:39;95615.78;;;-4.97;92.95
56330;BME280;42236;48.058;10.632;2022-12-19T03:22:25;95608.84;;;-4.91;92.73
56330;BME280;42236;48.058;10.632;2022-12-19T03:25:11;95601.69;;;-4.84;92.79
56330;BME280;42236;48.058;10.632;2022-12-19T03:27:59;95594.16;;;-4.80;92.48
56330;BME280;42236;48.058;10.632;2022-12-19T03:30:47;95587.41;;;-4.76;92.79
56330;BME280;42236;48.058;10.632;2022-12-19T03:33:33;95585.38;;;-4.74;92.58
56330;BME280;42236;48.058;10.632;2022-12-19T03:36:26;95591.22;;;-4.72;92.48
56330;BME280;42236;48.058;10.632;2022-12-19T03:39:13;95591.59;;;-4.68;92.66
56330;BME280;42236;48.058;10.632;2022-12-19T03:42:02;95591.75;;;-4.63;93.21
56330;BME280;42236;48.058;10.632;2022-12-19T03:45:09;95586.59;;;-4.58;93.01
56330;BME280;42236;48.058;10.632;2022-12-19T03:47:58;95579.31;;;-4.56;92.84
56330;BME280;42236;48.058;10.632;2022-12-19T03:57:01;95584.63;;;-4.44;93.33
56330;BME280;42236;48.058;10.632;2022-12-19T03:59:53;95571.78;;;-4.41;93.25
56330;BME280;42236;48.058;10.632;2022-12-19T04:02:42;95566.06;;;-4.38;93.20
56330;BME280;42236;48.058;10.632;2022-12-19T04:05:31;95578.22;;;-4.37;93.51
56330;BME280;42236;48.058;10.632;2022-12-19T04:08:18;95584.63;;;-4.33;93.58
56330;BME280;42236;48.058;10.632;2022-12-19T04:11:08;95583.19;;;-4.29;93.77
56330;BME280;42236;48.058;10.632;2022-12-19T04:14:01;95571.63;;;-4.27;93.60
56330;BME280;42236;48.058;10.632;2022-12-19T04:16:59;95588.22;;;-4.27;93.79
56330;BME280;42236;48.058;10.632;2022-12-19T04:19:54;95593.25;;;-4.25;93.76
56330;BME280;42236;48.058;10.632;2022-12-19T04:25:46;95601.66;;;-4.17;93.90
56330;BME280;42236;48.058;10.632;2022-12-19T04:28:45;95596.53;;;-4.12;93.65
56330;BME280;42236;48.058;10.632;2022-12-19T04:31:32;95592.19;;;-4.06;93.62
56330;BME280;42236;48.058;10.632;2022-12-19T04:34:19;95590.97;;;-4.03;93.54
56330;BME280;42236;48.058;10.632;2022-12-19T04:37:05;95588.66;;;-4.00;93.64
56330;BME280;42236;48.058;10.632;2022-12-19T04:39:51;95596.69;;;-3.95;93.78
56330;BME280;42236;48.058;10.632;2022-12-19T04:42:37;95590.97;;;-3.92;93.72
56330;BME280;42236;48.058;10.632;2022-12-19T04:45:23;95580.19;;;-3.90;93.90
56330;BME280;42236;48.058;10.632;2022-12-19T04:48:08;95594.19;;;-3.90;93.66
56330;BME280;42236;48.058;10.632;2022-12-19T04:50:54;95588.91;;;-3.90;93.90
56330;BME280;42236;48.058;10.632;2022-12-19T04:53:40;95594.75;;;-3.88;94.33
56330;BME280;42236;48.058;10.632;2022-12-19T04:56:26;95593.28;;;-3.83;94.15
56330;BME280;42236;48.058;10.632;2022-12-19T04:59:11;95594.66;;;-3.81;94.42
56330;BME280;42236;48.058;10.632;2022-12-19T05:01:57;95593.88;;;-3.81;94.61
56330;BME280;42236;48.058;10.632;2022-12-19T05:04:43;95592.84;;;-3.80;94.69
56330;BME280;42236;48.058;10.632;2022-12-19T05:07:29;95592.63;;;-3.79;94.78
56330;BME280;42236;48.058;10.632;2022-12-19T05:10:14;95592.38;;;-3.77;94.75
56330;BME280;42236;48.058;10.632;2022-12-19T05:13:00;95589.50;;;-3.76;94.90
56330;BME280;42236;48.058;10.632;2022-12-19T05:15:54;95594.31;;;-3.73;94.89
56330;BME280;42236;48.058;10.632;2022-12-19T05:18:40;95597.75;;;-3.72;94.84
56330;BME280;42236;48.058;10.632;2022-12-19T05:21:26;95591.47;;;-3.71;94.70
56330;BME280;42236;48.058;10.632;2022-12-19T05:24:12;95603.63;;;-3.70;94.88
56330;BME280;42236;48.058;10.632;2022-12-19T05:26:58;95592.63;;;-3.67;94.94
56330;BME280;42236;48.058;10.632;2022-12-19T05:29:43;95601.34;;;-3.67;94.97
56330;BME280;42236;48.058;10.632;2022-12-19T05:32:30;95605.94;;;-3.62;94.78
56330;BME280;42236;48.058;10.632;2022-12-19T05:35:16;95618.44;;;-3.57;94.77
56330;BME280;42236;48.058;10.632;2022-12-19T05:38:02;95610.28;;;-3.56;94.78
56330;BME280;42236;48.058;10.632;2022-12-19T05:40:48;95615.81;;;-3.57;94.83
56330;BME280;42236;48.058;10.632;2022-12-19T05:43:33;95614.75;;;-3.56;95.19
56330;BME280;42236;48.058;10.632;2022-12-19T05:46:19;95606.19;;;-3.52;94.83
56330;BME280;42236;48.058;10.632;2022-12-19T05:49:05;95612.16;;;-3.45;94.83
56330;BME280;42236;48.058;10.632;2022-12-19T05:51:51;95609.03;;;-3.41;94.62
56330;BME280;42236;48.058;10.632;2022-12-19T05:54:37;95610.44;;;-3.39;95.00
56330;BME280;42236;48.058;10.632;2022-12-19T05:57:23;95603.09;;;-3.37;94.60
56330;BME280;42236;48.058;10.632;2022-12-19T06:00:09;95609.16;;;-3.36;94.06
56330;BME280;42236;48.058;10.632;2022-12-19T06:02:54;95610.09;;;-3.31;94.36
56330;BME280;42236;48.058;10.632;2022-12-19T06:05:40;95608.25;;;-3.30;94.07
56330;BME280;42236;48.058;10.632;2022-12-19T06:08:26;95616.75;;;-3.28;94.41
56330;BME280;42236;48.058;10.632;2022-12-19T06:11:12;95605.16;;;-3.27;94.31
56330;BME280;42236;48.058;10.632;2022-12-19T06:13:58;95615.81;;;-3.22;94.64
56330;BME280;42236;48.058;10.632;2022-12-19T06:16:44;95610.53;;;-3.22;94.36
56330;BME280;42236;48.058;10.632;2022-12-19T06:19:30;95610.91;;;-3.18;94.87
56330;BME280;42236;48.058;10.632;2022-12-19T06:22:15;95613.28;;;-3.17;94.93
56330;BME280;42236;48.058;10.632;2022-12-19T06:25:01;95612.84;;;-3.14;94.90
56330;BME280;42236;48.058;10.632;2022-12-19T06:27:47;95612.28;;;-3.16;94.74
56330;BME280;42236;48.058;10.632;2022-12-19T06:30:32;95609.41;;;-3.14;95.11
56330;BME280;42236;48.058;10.632;2022-12-19T06:33:18;95610.22;;;-3.14;95.26
56330;BME280;42236;48.058;10.632;2022-12-19T06:36:13;95605.28;;;-3.10;95.45
56330;BME280;42236;48.058;10.632;2022-12-19T06:39:00;95604.81;;;-3.07;95.36
56330;BME280;42236;48.058;10.632;2022-12-19T06:41:46;95608.81;;;-3.05;95.29
56330;BME280;42236;48.058;10.632;2022-12-19T06:44:51;95611.47;;;-3.05;95.40
56330;BME280;42236;48.058;10.632;2022-12-19T06:47:37;95602.53;;;-3.04;95.54
56330;BME280;42236;48.058;10.632;2022-12-19T06:50:23;95611.22;;;-3.03;95.63
56330;BME280;42236;48.058;10.632;2022-12-19T06:53:08;95601.47;;;-3.03;95.91
56330;BME280;42236;48.058;10.632;2022-12-19T06:55:56;95596.78;;;-3.01;96.28
56330;BME280;42236;48.058;10.632;2022-12-19T06:58:42;95597.94;;;-2.96;96.13
56330;BME280;42236;48.058;10.632;2022-12-19T07:01:41;95589.75;;;-2.95;96.05
56330;BME280;42236;48.058;10.632;2022-12-19T07:04:40;95597.44;;;-2.93;95.98
56330;BME280;42236;48.058;10.632;2022-12-19T07:07:28;95603.88;;;-2.89;96.04
56330;BME280;42236;48.058;10.632;2022-12-19T07:10:14;95612.72;;;-2.84;95.97
56330;BME280;42236;48.058;10.632;2022-12-19T07:13:00;95599.88;;;-2.80;96.03
56330;BME280;42236;48.058;10.632;2022-12-19T07:15:46;95596.75;;;-2.77;96.08
56330;BME280;42236;48.058;10.632;2022-12-19T07:18:35;95586.19;;;-2.77;96.37
56330;BME280;42236;48.058;10.632;2022-12-19T07:21:21;95592.63;;;-2.73;96.40
56330;BME280;42236;48.058;10.632;2022-12-19T07:24:07;95583.66;;;-2.72;96.54
56330;BME280;42236;48.058;10.632;2022-12-19T07:26:53;95584.78;;;-2.68;96.57
56330;BME280;42236;48.058;10.632;2022-12-19T07:29:39;95596.25;;;-2.62;96.88
56330;BME280;42236;48.058;10.632;2022-12-19T07:32:24;95601.16;;;-2.54;96.84
56330;BME280;42236;48.058;10.632;2022-12-19T07:35:10;95605.84;;;-2.44;96.41
56330;BME280;42236;48.058;10.632;2022-12-19T07:38:03;95603.88;;;-2.37;96.62
56330;BME280;42236;48.058;10.632;2022-12-19T07:40:49;95612.47;;;-2.30;96.73
56330;BME280;42236;48.058;10.632;2022-12-19T07:43:35;95602.00;;;-2.25;96.84
56330;BME280;42236;48.058;10.632;2022-12-19T07:46:20;95605.56;;;-2.19;96.81
56330;BME280;42236;48.058;10.632;2022-12-19T07:49:06;95599.06;;;-2.11;96.86
56330;BME280;42236;48.058;10.632;2022-12-19T07:51:52;95597.31;;;-2.06;96.89
56330;BME280;42236;48.058;10.632;2022-12-19T07:54:37;95591.91;;;-1.99;96.81
56330;BME280;42236;48.058;10.632;2022-12-19T07:57:23;95597.03;;;-1.92;96.87
56330;BME280;42236;48.058;10.632;2022-12-19T08:00:09;95602.97;;;-1.85;97.00
56330;BME280;42236;48.058;10.632;2022-12-19T08:02:55;95611.31;;;-1.77;97.42
56330;BME280;42236;48.058;10.632;2022-12-19T08:05:40;95611.97;;;-1.69;97.52
56330;BME280;42236;48.058;10.632;2022-12-19T08:08:27;95606.88;;;-1.59;97.70
56330;BME280;42236;48.058;10.632;2022-12-19T08:11:18;95602.53;;;-1.48;97.75
56330;BME280;42236;48.058;10.632;2022-12-19T08:14:10;95603.97;;;-1.41;97.88
56330;BME280;42236;48.058;10.632;2022-12-19T08:16:56;95603.81;;;-1.34;98.66
56330;BME280;42236;48.058;10.632;2022-12-19T08:19:42;95610.53;;;-1.26;99.87
56330;BME280;42236;48.058;10.632;2022-12-19T08:22:30;95601.41;;;-1.19;100.00
56330;BME280;42236;48.058;10.632;2022-12-19T08:25:16;95602.84;;;-1.11;100.00
56330;BME280;42236;48.058;10.632;2022-12-19T08:28:02;95601.38;;;-1.02;100.00
56330;BME280;42236;48.058;10.632;2022-12-19T08:30:47;95597.28;;;-0.93;100.00
56330;BME280;42236;48.058;10.632;2022-12-19T08:33:33;95597.66;;;-0.84;100.00
56330;BME280;42236;48.058;10.632;2022-12-19T08:36:19;95585.34;;;-0.73;100.00
56330;BME280;42236;48.058;10.632;2022-12-19T08:39:05;95584.44;;;-0.62;100.00
56330;BME280;42236;48.058;10.632;2022-12-19T08:41:51;95576.38;;;-0.50;100.00
56330;BME280;42236;48.058;10.632;2022-12-19T08:44:37;95570.38;;;-0.40;100.00
56330;BME280;42236;48.058;10.632;2022-12-19T08:47:22;95570.50;;;-0.30;100.00
56330;BME280;42236;48.058;10.632;2022-12-19T08:50:09;95576.44;;;-0.18;100.00
56330;BME280;42236;48.058;10.632;2022-12-19T08:52:55;95570.44;;;-0.08;100.00
56330;BME280;42236;48.058;10.632;2022-12-19T08:55:40;95563.66;;;0.01;100.00
56330;BME280;42236;48.058;10.632;2022-12-19T08:58:27;95569.31;;;0.10;100.00
56330;BME280;42236;48.058;10.632;2022-12-19T09:01:15;95570.94;;;0.16;100.00
56330;BME280;42236;48.058;10.632;2022-12-19T09:04:03;95575.78;;;0.24;100.00
56330;BME280;42236;48.058;10.632;2022-12-19T09:06:50;95571.91;;;0.32;100.00
56330;BME280;42236;48.058;10.632;2022-12-19T09:09:35;95584.69;;;0.40;100.00
56330;BME280;42236;48.058;10.632;2022-12-19T09:12:21;95584.00;;;0.50;100.00
56330;BME280;42236;48.058;10.632;2022-12-19T09:15:07;95578.75;;;0.60;100.00
56330;BME280;42236;48.058;10.632;2022-12-19T09:17:52;95577.22;;;0.69;100.00
56330;BME280;42236;48.058;10.632;2022-12-19T09:20:38;95569.84;;;0.76;100.00
56330;BME280;42236;48.058;10.632;2022-12-19T09:23:25;95575.19;;;0.81;100.00
56330;BME280;42236;48.058;10.632;2022-12-19T09:26:16;95579.78;;;0.91;100.00
56330;BME280;42236;48.058;10.632;2022-12-19T09:29:02;95586.75;;;1.02;100.00
56330;BME280;42236;48.058;10.632;2022-12-19T09:31:49;95589.22;;;1.14;99.70
56330;BME280;42236;48.058;10.632;2022-12-19T09:34:34;95591.69;;;1.26;99.36
56330;BME280;42236;48.058;10.632;2022-12-19T09:37:20;95575.78;;;1.36;98.62
56330;BME280;42236;48.058;10.632;2022-12-19T09:40:08;95578.75;;;1.45;98.49
56330;BME280;42236;48.058;10.632;2022-12-19T09:46:05;95581.47;;;1.60;97.83
56330;BME280;42236;48.058;10.632;2022-12-19T09:48:55;95585.75;;;1.71;97.48
56330;BME280;42236;48.058;10.632;2022-12-19T09:55:01;95580.53;;;2.02;96.57
56330;BME280;42236;48.058;10.632;2022-12-19T09:57:57;95574.72;;;2.21;96.23
56330;BME280;42236;48.058;10.632;2022-12-19T10:00:48;95557.72;;;2.37;95.87
56330;BME280;42236;48.058;10.632;2022-12-19T10:03:39;95563.59;;;2.44;95.20
56330;BME280;42236;48.058;10.632;2022-12-19T10:06:28;95556.38;;;2.50;95.13
56330;BME280;42236;48.058;10.632;2022-12-19T10:09:16;95551.84;;;2.55;94.90
56330;BME280;42236;48.058;10.632;2022-12-19T10:15:24;95546.81;;;2.59;94.81
56330;BME280;42236;48.058;10.632;2022-12-19T10:18:28;95541.19;;;2.61;94.90
56330;BME280;42236;48.058;10.632;2022-12-19T10:21:45;95528.16;;;2.59;94.56
56330;BME280;42236;48.058;10.632;2022-12-19T10:24:49;95530.03;;;2.64;95.16
56330;BME280;42236;48.058;10.632;2022-12-19T10:31:17;95526.81;;;2.62;94.86
56330;BME280;42236;48.058;10.632;2022-12-19T10:34:19;95532.69;;;2.59;94.90
56330;BME280;42236;48.058;10.632;2022-12-19T10:40:14;95514.03;;;2.53;95.44
56330;BME280;42236;48.058;10.632;2022-12-19T10:43:10;95493.25;;;2.50;95.70
56330;BME280;42236;48.058;10.632;2022-12-19T10:46:02;95505.78;;;2.55;96.12
56330;BME280;42236;48.058;10.632;2022-12-19T10:48:50;95511.09;;;2.55;96.30
56330;BME280;42236;48.058;10.632;2022-12-19T10:51:37;95509.50;;;2.59;96.16
56330;BME280;42236;48.058;10.632;2022-12-19T10:54:22;95514.31;;;2.57;95.69
56330;BME280;42236;48.058;10.632;2022-12-19T11:00:16;95499.91;;;2.48;95.66
56330;BME280;42236;48.058;10.632;2022-12-19T11:03:11;95497.25;;;2.48;95.75
56330;BME280;42236;48.058;10.632;2022-12-19T11:05:59;95496.47;;;2.52;95.81
56330;BME280;42236;48.058;10.632;2022-12-19T11:08:44;95498.56;;;2.55;96.05
56330;BME280;42236;48.058;10.632;2022-12-19T11:11:33;95494.84;;;2.62;95.90
56330;BME280;42236;48.058;10.632;2022-12-19T11:14:25;95490.31;;;2.62;95.54
56330;BME280;42236;48.058;10.632;2022-12-19T11:17:35;95509.75;;;2.68;95.20
56330;BME280;42236;48.058;10.632;2022-12-19T11:20:22;95508.94;;;2.77;95.42
56330;BME280;42236;48.058;10.632;2022-12-19T11:23:13;95502.28;;;2.80;95.04
56330;BME280;42236;48.058;10.632;2022-12-19T11:26:01;95504.41;;;2.83;94.79
56330;BME280;42236;48.058;10.632;2022-12-19T11:28:48;95507.84;;;2.89;94.89
56330;BME280;42236;48.058;10.632;2022-12-19T11:31:34;95506.25;;;2.98;94.69
56330;BME280;42236;48.058;10.632;2022-12-19T11:34:22;95518.19;;;3.16;94.48
56330;BME280;42236;48.058;10.632;2022-12-19T11:43:32;95479.66;;;3.48;92.67
56330;BME280;42236;48.058;10.632;2022-12-19T11:46:42;95472.97;;;3.50;92.74
56330;BME280;42236;48.058;10.632;2022-12-19T11:49:37;95475.34;;;3.57;92.80
56330;BME280;42236;48.058;10.632;2022-12-19T11:52:48;95481.16;;;3.69;92.52
56330;BME280;42236;48.058;10.632;2022-12-19T11:58:35;95489.38;;;3.78;91.55
56330;BME280;42236;48.058;10.632;2022-12-19T12:07:35;95470.03;;;3.52;91.58
56330;BME280;42236;48.058;10.632;2022-12-19T12:10:21;95462.06;;;3.47;91.83
56330;BME280;42236;48.058;10.632;2022-12-19T12:13:30;95464.00;;;3.31;91.69
56330;BME280;42236;48.058;10.632;2022-12-19T12:16:23;95463.25;;;3.20;92.78
56330;BME280;42236;48.058;10.632;2022-12-19T12:19:16;95455.53;;;3.13;93.13
56330;BME280;42236;48.058;10.632;2022-12-19T12:28:30;95427.34;;;2.97;93.91
56330;BME280;42236;48.058;10.632;2022-12-19T12:31:31;95431.34;;;2.94;94.22
56330;BME280;42236;48.058;10.632;2022-12-19T12:37:33;95422.31;;;2.95;93.85
56330;BME280;42236;48.058;10.632;2022-12-19T12:44:05;95428.69;;;2.94;93.88
56330;BME280;42236;48.058;10.632;2022-12-19T12:47:07;95426.28;;;2.98;93.70
56330;BME280;42236;48.058;10.632;2022-12-19T12:50:06;95424.19;;;2.95;93.69
56330;BME280;42236;48.058;10.632;2022-12-19T12:52:58;95419.66;;;2.90;93.97
56330;BME280;42236;48.058;10.632;2022-12-19T12:55:46;95417.00;;;2.90;94.07
56330;BME280;42236;48.058;10.632;2022-12-19T13:01:36;95426.56;;;2.96;94.09
56330;BME280;42236;48.058;10.632;2022-12-19T13:04:27;95427.63;;;3.01;93.95
56330;BME280;42236;48.058;10.632;2022-12-19T13:10:23;95428.09;;;3.13;93.46
56330;BME280;42236;48.058;10.632;2022-12-19T13:13:13;95421.94;;;3.17;93.28
56330;BME280;42236;48.058;10.632;2022-12-19T13:19:31;95419.47;;;3.26;92.98
56330;BME280;42236;48.058;10.632;2022-12-19T13:22:21;95418.69;;;3.26;92.80
56330;BME280;42236;48.058;10.632;2022-12-19T13:42:46;95432.25;;;3.34;91.95
56330;BME280;42236;48.058;10.632;2022-12-19T13:45:56;95438.66;;;3.38;91.72
56330;BME280;42236;48.058;10.632;2022-12-19T13:48:45;95434.38;;;3.37;91.66
56330;BME280;42236;48.058;10.632;2022-12-19T13:51:51;95437.84;;;3.33;91.59
56330;BME280;42236;48.058;10.632;2022-12-19T13:54:50;95445.63;;;3.29;91.89
56330;BME280;42236;48.058;10.632;2022-12-19T13:57:40;95438.44;;;3.25;92.01
56330;BME280;42236;48.058;10.632;2022-12-19T14:00:33;95439.78;;;3.22;91.92
56330;BME280;42236;48.058;10.632;2022-12-19T14:03:28;95440.84;;;3.21;91.96
56330;BME280;42236;48.058;10.632;2022-12-19T14:06:25;95441.13;;;3.19;91.95
56330;BME280;42236;48.058;10.632;2022-12-19T14:09:29;95441.16;;;3.14;92.22
56330;BME280;42236;48.058;10.632;2022-12-19T14:12:22;95440.34;;;3.09;92.24
56330;BME280;42236;48.058;10.632;2022-12-19T14:15:31;95450.50;;;3.02;92.76
56330;BME280;42236;48.058;10.632;2022-12-19T14:18:19;95445.75;;;2.98;92.84
56330;BME280;42236;48.058;10.632;2022-12-19T14:21:25;95454.28;;;2.95;92.86
56330;BME280;42236;48.058;10.632;2022-12-19T14:24:19;95449.50;;;2.92;92.92
56330;BME280;42236;48.058;10.632;2022-12-19T14:27:11;95441.50;;;2.87;93.18
56330;BME280;42236;48.058;10.632;2022-12-19T14:29:59;95431.94;;;2.81;93.35
56330;BME280;42236;48.058;10.632;2022-12-19T14:32:46;95437.81;;;2.78;93.66
56330;BME280;42236;48.058;10.632;2022-12-19T14:35:36;95439.69;;;2.72;93.90
56330;BME280;42236;48.058;10.632;2022-12-19T14:38:26;95442.63;;;2.66;94.20
56330;BME280;42236;48.058;10.632;2022-12-19T14:41:40;95447.47;;;2.59;94.58
56330;BME280;42236;48.058;10.632;2022-12-19T14:44:48;95448.53;;;2.52;94.18
56330;BME280;42236;48.058;10.632;2022-12-19T14:47:37;95463.44;;;2.48;93.98
56330;BME280;42236;48.058;10.632;2022-12-19T14:53:17;95444.81;;;2.33;95.05
56330;BME280;42236;48.058;10.632;2022-12-19T14:56:09;95440.56;;;2.22;95.66
56330;BME280;42236;48.058;10.632;2022-12-19T14:58:57;95436.31;;;2.16;96.38
56330;BME280;42236;48.058;10.632;2022-12-19T15:05:09;95445.09;;;2.11;95.98
56330;BME280;42236;48.058;10.632;2022-12-19T15:07:58;95446.16;;;2.05;96.29
56330;BME280;42236;48.058;10.632;2022-12-19T15:10:45;95448.81;;;1.95;96.84
56330;BME280;42236;48.058;10.632;2022-12-19T15:13:31;95452.28;;;1.90;96.88
56330;BME280;42236;48.058;10.632;2022-12-19T15:16:29;95451.72;;;1.83;97.35
56330;BME280;42236;48.058;10.632;2022-12-19T15:19:15;95443.22;;;1.76;98.38
56330;BME280;42236;48.058;10.632;2022-12-19T15:22:01;95450.13;;;1.71;99.33
56330;BME280;42236;48.058;10.632;2022-12-19T15:24:46;95462.91;;;1.69;99.91
56330;BME280;42236;48.058;10.632;2022-12-19T15:27:32;95451.97;;;1.66;99.82
56330;BME280;42236;48.058;10.632;2022-12-19T15:30:20;95443.47;;;1.64;100.00
56330;BME280;42236;48.058;10.632;2022-12-19T15:33:13;95457.03;;;1.62;100.00
56330;BME280;42236;48.058;10.632;2022-12-19T15:35:59;95453.84;;;1.60;100.00
56330;BME280;42236;48.058;10.632;2022-12-19T15:38:45;95458.34;;;1.60;100.00
56330;BME280;42236;48.058;10.632;2022-12-19T15:41:31;95453.53;;;1.57;100.00
56330;BME280;42236;48.058;10.632;2022-12-19T15:44:25;95447.44;;;1.51;100.00
56330;BME280;42236;48.058;10.632;2022-12-19T15:47:35;95458.59;;;1.48;100.00
56330;BME280;42236;48.058;10.632;2022-12-19T15:50:23;95454.59;;;1.45;100.00
56330;BME280;42236;48.058;10.632;2022-12-19T15:53:26;95468.69;;;1.41;100.00
56330;BME280;42236;48.058;10.632;2022-12-19T15:56:24;95464.94;;;1.37;100.00
56330;BME280;42236;48.058;10.632;2022-12-19T16:02:17;95452.16;;;1.28;100.00
56330;BME280;42236;48.058;10.632;2022-12-19T16:05:03;95448.97;;;1.26;100.00
56330;BME280;42236;48.058;10.632;2022-12-19T16:07:49;95453.50;;;1.26;100.00
56330;BME280;42236;48.058;10.632;2022-12-19T16:10:35;95461.72;;;1.24;100.00
56330;BME280;42236;48.058;10.632;2022-12-19T16:13:25;95458.50;;;1.22;100.00
56330;BME280;42236;48.058;10.632;2022-12-19T16:16:12;95459.03;;;1.19;100.00
56330;BME280;42236;48.058;10.632;2022-12-19T16:18:58;95453.72;;;1.19;100.00
56330;BME280;42236;48.058;10.632;2022-12-19T16:21:44;95462.75;;;1.18;100.00
56330;BME280;42236;48.058;10.632;2022-12-19T16:24:29;95452.09;;;1.18;100.00
56330;BME280;42236;48.058;10.632;2022-12-19T16:27:29;95462.25;;;1.21;100.00
56330;BME280;42236;48.058;10.632;2022-12-19T16:30:24;95454.53;;;1.20;100.00
56330;BME280;42236;48.058;10.632;2022-12-19T16:33:20;95446.28;;;1.21;100.00
56330;BME280;42236;48.058;10.632;2022-12-19T16:36:07;95441.78;;;1.22;100.00
56330;BME280;42236;48.058;10.632;2022-12-19T16:38:53;95442.03;;;1.20;100.00
56330;BME280;42236;48.058;10.632;2022-12-19T16:41:39;95443.63;;;1.21;100.00
56330;BME280;42236;48.058;10.632;2022-12-19T16:44:29;95443.34;;;1.23;100.00
56330;BME280;42236;48.058;10.632;2022-12-19T16:47:16;95438.88;;;1.23;100.00
56330;BME280;42236;48.058;10.632;2022-12-19T16:50:21;95442.03;;;1.25;100.00
56330;BME280;42236;48.058;10.632;2022-12-19T16:53:07;95442.56;;;1.27;100.00
56330;BME280;42236;48.058;10.632;2022-12-19T16:55:54;95445.22;;;1.27;100.00
56330;BME280;42236;48.058;10.632;2022-12-19T16:58:40;95444.19;;;1.28;100.00